Terminal Aerodrome Forecast
Issued by NWS Norman, OK

Current Version | Previous Version | Text Only | Print | Product List | Glossary Off
Versions: 1 2 3 4 5 6 7 8 9 10 11 12

000
FTUS44 KOUN 242323
TAFOKC
TAF
KOKC 242323Z 2500/2524 34005KT P6SM SKC
     FM250100 14008KT P6SM SKC
     FM251400 17016G26KT P6SM FEW250=

USA.gov is the U.S. government's official web portal to all federal, state and local government web resources and services.